sensor_id;sensor_type;location;lat;lon;timestamp;pressure;altitude;pressure_sealevel;temperature;humidity
59757;BME280;45631;51.962;5.974;2024-02-16T00:02:06;69388.88;;;9.02;100.00
59757;BME280;45631;51.962;5.974;2024-02-16T00:04:37;69391.16;;;8.99;100.00
59757;BME280;45631;51.962;5.974;2024-02-16T00:07:05;69384.47;;;8.95;100.00
59757;BME280;45631;51.962;5.974;2024-02-16T00:09:33;69383.00;;;8.92;100.00
59757;BME280;45631;51.962;5.974;2024-02-16T00:12:03;69369.69;;;8.89;100.00
59757;BME280;45631;51.962;5.974;2024-02-16T00:14:32;69374.00;;;8.86;100.00
59757;BME280;45631;51.962;5.974;2024-02-16T00:17:00;69375.44;;;8.85;100.00
59757;BME280;45631;51.962;5.974;2024-02-16T00:19:31;69374.53;;;8.82;100.00
59757;BME280;45631;51.962;5.974;2024-02-16T00:21:59;69368.41;;;8.79;100.00
59757;BME280;45631;51.962;5.974;2024-02-16T00:24:27;69366.69;;;8.77;100.00
59757;BME280;45631;51.962;5.974;2024-02-16T00:27:00;69361.16;;;8.75;100.00
59757;BME280;45631;51.962;5.974;2024-02-16T00:29:30;69369.03;;;8.79;100.00
59757;BME280;45631;51.962;5.974;2024-02-16T00:31:58;69372.78;;;8.80;100.00
59757;BME280;45631;51.962;5.974;2024-02-16T00:34:27;69369.03;;;8.79;100.00
59757;BME280;45631;51.962;5.974;2024-02-16T00:36:55;69376.00;;;8.86;100.00
59757;BME280;45631;51.962;5.974;2024-02-16T00:39:23;69373.09;;;8.83;100.00
59757;BME280;45631;51.962;5.974;2024-02-16T00:41:51;69369.59;;;8.80;100.00
59757;BME280;45631;51.962;5.974;2024-02-16T00:44:20;69363.81;;;8.79;100.00
59757;BME280;45631;51.962;5.974;2024-02-16T00:46:50;69361.44;;;8.73;100.00
59757;BME280;45631;51.962;5.974;2024-02-16T00:49:18;69360.28;;;8.72;100.00
59757;BME280;45631;51.962;5.974;2024-02-16T00:51:46;69354.44;;;8.67;100.00
59757;BME280;45631;51.962;5.974;2024-02-16T00:54:15;69353.22;;;8.61;100.00
59757;BME280;45631;51.962;5.974;2024-02-16T00:56:43;69341.94;;;8.58;100.00
59757;BME280;45631;51.962;5.974;2024-02-16T00:59:11;69341.03;;;8.55;100.00
59757;BME280;45631;51.962;5.974;2024-02-16T01:01:39;69333.47;;;8.48;100.00
59757;BME280;45631;51.962;5.974;2024-02-16T01:04:09;69329.97;;;8.45;100.00
59757;BME280;45631;51.962;5.974;2024-02-16T01:06:37;69327.88;;;8.41;100.00
59757;BME280;45631;51.962;5.974;2024-02-16T01:09:05;69319.78;;;8.38;100.00
59757;BME280;45631;51.962;5.974;2024-02-16T01:11:33;69315.97;;;8.33;100.00
59757;BME280;45631;51.962;5.974;2024-02-16T01:14:01;69314.50;;;8.29;100.00
59757;BME280;45631;51.962;5.974;2024-02-16T01:16:29;69305.78;;;8.26;100.00
59757;BME280;45631;51.962;5.974;2024-02-16T01:18:57;69308.66;;;8.24;100.00
59757;BME280;45631;51.962;5.974;2024-02-16T01:21:27;69300.56;;;8.21;100.00
59757;BME280;45631;51.962;5.974;2024-02-16T01:23:55;69299.38;;;8.20;100.00
59757;BME280;45631;51.962;5.974;2024-02-16T01:26:26;69297.31;;;8.16;100.00
59757;BME280;45631;51.962;5.974;2024-02-16T01:28:54;69295.00;;;8.14;100.00
59757;BME280;45631;51.962;5.974;2024-02-16T01:31:24;69289.50;;;8.11;100.00
59757;BME280;45631;51.962;5.974;2024-02-16T01:33:53;69290.91;;;8.10;100.00
59757;BME280;45631;51.962;5.974;2024-02-16T01:36:21;69289.75;;;8.09;100.00
59757;BME280;45631;51.962;5.974;2024-02-16T01:38:51;69285.97;;;8.08;100.00
59757;BME280;45631;51.962;5.974;2024-02-16T01:41:19;69287.44;;;8.07;100.00
59757;BME280;45631;51.962;5.974;2024-02-16T01:43:47;69288.28;;;8.06;100.00
59757;BME280;45631;51.962;5.974;2024-02-16T01:46:15;69281.59;;;8.02;100.00
59757;BME280;45631;51.962;5.974;2024-02-16T01:48:43;69278.69;;;8.00;100.00
59757;BME280;45631;51.962;5.974;2024-02-16T01:51:12;69274.91;;;7.99;100.00
59757;BME280;45631;51.962;5.974;2024-02-16T01:53:41;69275.19;;;7.97;100.00
59757;BME280;45631;51.962;5.974;2024-02-16T01:56:10;69271.72;;;7.93;100.00
59757;BME280;45631;51.962;5.974;2024-02-16T01:58:39;69268.19;;;7.90;100.00
59757;BME280;45631;51.962;5.974;2024-02-16T02:01:07;69268.75;;;7.86;100.00
59757;BME280;45631;51.962;5.974;2024-02-16T02:03:35;69259.78;;;7.85;100.00
59757;BME280;45631;51.962;5.974;2024-02-16T02:06:04;69260.63;;;7.84;100.00
59757;BME280;45631;51.962;5.974;2024-02-16T02:08:32;69262.09;;;7.83;100.00
59757;BME280;45631;51.962;5.974;2024-02-16T02:11:00;69258.88;;;7.82;100.00
59757;BME280;45631;51.962;5.974;2024-02-16T02:13:30;69255.13;;;7.81;100.00
59757;BME280;45631;51.962;5.974;2024-02-16T02:15:59;69255.41;;;7.79;100.00
59757;BME280;45631;51.962;5.974;2024-02-16T02:18:28;69253.06;;;7.77;100.00
59757;BME280;45631;51.962;5.974;2024-02-16T02:20:56;69248.16;;;7.75;100.00
59757;BME280;45631;51.962;5.974;2024-02-16T02:23:26;69244.66;;;7.72;100.00
59757;BME280;45631;51.962;5.974;2024-02-16T02:25:55;69242.00;;;7.67;100.00
59757;BME280;45631;51.962;5.974;2024-02-16T02:28:23;69237.09;;;7.65;100.00
59757;BME280;45631;51.962;5.974;2024-02-16T02:30:51;69234.75;;;7.63;100.00
59757;BME280;45631;51.962;5.974;2024-02-16T02:33:20;69237.34;;;7.63;100.00
59757;BME280;45631;51.962;5.974;2024-02-16T02:35:48;69229.84;;;7.61;100.00
59757;BME280;45631;51.962;5.974;2024-02-16T02:38:16;69232.97;;;7.57;100.00
59757;BME280;45631;51.962;5.974;2024-02-16T02:40:46;69233.81;;;7.55;100.00
59757;BME280;45631;51.962;5.974;2024-02-16T02:43:14;69222.25;;;7.54;100.00
59757;BME280;45631;51.962;5.974;2024-02-16T02:45:42;69229.78;;;7.56;100.00
59757;BME280;45631;51.962;5.974;2024-02-16T02:48:10;69237.09;;;7.65;100.00
59757;BME280;45631;51.962;5.974;2024-02-16T02:50:39;69242.59;;;7.68;100.00
59757;BME280;45631;51.962;5.974;2024-02-16T02:53:07;69238.84;;;7.67;100.00
59757;BME280;45631;51.962;5.974;2024-02-16T02:55:35;69240.25;;;7.66;100.00
59757;BME280;45631;51.962;5.974;2024-02-16T02:58:05;69243.50;;;7.71;100.00
59757;BME280;45631;51.962;5.974;2024-02-16T03:00:33;69244.91;;;7.70;100.00
59757;BME280;45631;51.962;5.974;2024-02-16T03:03:02;69244.59;;;7.67;100.00
59757;BME280;45631;51.962;5.974;2024-02-16T03:05:30;69240.25;;;7.66;100.00
59757;BME280;45631;51.962;5.974;2024-02-16T03:07:59;69240.84;;;7.66;100.00
59757;BME280;45631;51.962;5.974;2024-02-16T03:10:28;69245.56;;;7.75;100.00
59757;BME280;45631;51.962;5.974;2024-02-16T03:13:01;69260.94;;;7.86;100.00
59757;BME280;45631;51.962;5.974;2024-02-16T03:15:31;69264.97;;;7.85;100.00
59757;BME280;45631;51.962;5.974;2024-02-16T03:17:59;69269.34;;;7.87;100.00
59757;BME280;45631;51.962;5.974;2024-02-16T03:20:27;69292.66;;;8.12;100.00
59757;BME280;45631;51.962;5.974;2024-02-16T03:22:56;69299.66;;;8.18;100.00
59757;BME280;45631;51.962;5.974;2024-02-16T03:25:24;69311.31;;;8.28;100.00
59757;BME280;45631;51.962;5.974;2024-02-16T03:27:52;69315.09;;;8.34;100.00
59757;BME280;45631;51.962;5.974;2024-02-16T03:30:21;69336.69;;;8.53;100.00
59757;BME280;45631;51.962;5.974;2024-02-16T03:32:53;69345.75;;;8.63;100.00
59757;BME280;45631;51.962;5.974;2024-02-16T03:35:22;69368.16;;;8.81;100.00
59757;BME280;45631;51.962;5.974;2024-02-16T03:37:50;69365.25;;;8.78;100.00
59757;BME280;45631;51.962;5.974;2024-02-16T03:40:18;69372.81;;;8.85;100.00
59757;BME280;45631;51.962;5.974;2024-02-16T03:42:46;69378.94;;;8.93;100.00
59757;BME280;45631;51.962;5.974;2024-02-16T03:45:14;69395.28;;;9.07;100.00
59757;BME280;45631;51.962;5.974;2024-02-16T03:47:43;69406.88;;;9.13;100.00
59757;BME280;45631;51.962;5.974;2024-02-16T03:50:13;69412.16;;;9.18;100.00
59757;BME280;45631;51.962;5.974;2024-02-16T03:52:41;69423.25;;;9.32;100.00
59757;BME280;45631;51.962;5.974;2024-02-16T03:55:10;69427.28;;;9.31;100.00
59757;BME280;45631;51.962;5.974;2024-02-16T03:57:39;69421.78;;;9.28;100.00
59757;BME280;45631;51.962;5.974;2024-02-16T04:00:08;69437.22;;;9.40;100.00
59757;BME280;45631;51.962;5.974;2024-02-16T04:02:39;69445.38;;;9.47;100.00
59757;BME280;45631;51.962;5.974;2024-02-16T04:05:08;69448.84;;;9.50;100.00
59757;BME280;45631;51.962;5.974;2024-02-16T04:07:37;69451.19;;;9.52;100.00
59757;BME280;45631;51.962;5.974;2024-02-16T04:10:06;69447.09;;;9.48;100.00
59757;BME280;45631;51.962;5.974;2024-02-16T04:12:34;69446.22;;;9.45;100.00
59757;BME280;45631;51.962;5.974;2024-02-16T04:15:04;69448.84;;;9.50;100.00
59757;BME280;45631;51.962;5.974;2024-02-16T04:17:32;69445.38;;;9.47;100.00
59757;BME280;45631;51.962;5.974;2024-02-16T04:20:00;69451.19;;;9.52;100.00
59757;BME280;45631;51.962;5.974;2024-02-16T04:22:29;69454.44;;;9.57;100.00
59757;BME280;45631;51.962;5.974;2024-02-16T04:25:05;69453.53;;;9.54;100.00
59757;BME280;45631;51.962;5.974;2024-02-16T04:27:34;69443.94;;;9.48;100.00
59757;BME280;45631;51.962;5.974;2024-02-16T04:30:01;69450.63;;;9.52;100.00
59757;BME280;45631;51.962;5.974;2024-02-16T04:32:30;69453.22;;;9.52;100.00
59757;BME280;45631;51.962;5.974;2024-02-16T04:34:58;69446.78;;;9.46;100.00
59757;BME280;45631;51.962;5.974;2024-02-16T04:37:27;69447.72;;;9.49;100.00
59757;BME280;45631;51.962;5.974;2024-02-16T04:39:55;69441.88;;;9.44;100.00
59757;BME280;45631;51.962;5.974;2024-02-16T04:42:24;69434.28;;;9.37;100.00
59757;BME280;45631;51.962;5.974;2024-02-16T04:44:53;69440.13;;;9.42;100.00
59757;BME280;45631;51.962;5.974;2024-02-16T04:47:21;69436.91;;;9.37;100.00
59757;BME280;45631;51.962;5.974;2024-02-16T04:49:49;69433.13;;;9.36;100.00
59757;BME280;45631;51.962;5.974;2024-02-16T04:52:18;69427.88;;;9.32;100.00
59757;BME280;45631;51.962;5.974;2024-02-16T04:54:46;69436.31;;;9.37;100.00
59757;BME280;45631;51.962;5.974;2024-02-16T04:57:14;69424.69;;;9.31;100.00
59757;BME280;45631;51.962;5.974;2024-02-16T04:59:43;69427.88;;;9.32;100.00
59757;BME280;45631;51.962;5.974;2024-02-16T05:02:12;69431.94;;;9.35;100.00
59757;BME280;45631;51.962;5.974;2024-02-16T05:04:40;69438.38;;;9.41;100.00
59757;BME280;45631;51.962;5.974;2024-02-16T05:07:08;69434.00;;;9.39;100.00
59757;BME280;45631;51.962;5.974;2024-02-16T05:09:37;69427.91;;;9.36;100.00
59757;BME280;45631;51.962;5.974;2024-02-16T05:12:07;69430.19;;;9.34;100.00
59757;BME280;45631;51.962;5.974;2024-02-16T05:14:36;69429.31;;;9.30;100.00
59757;BME280;45631;51.962;5.974;2024-02-16T05:17:06;69425.22;;;9.27;100.00
59757;BME280;45631;51.962;5.974;2024-02-16T05:19:34;69424.38;;;9.28;100.00
59757;BME280;45631;51.962;5.974;2024-02-16T05:22:03;69428.16;;;9.29;100.00
59757;BME280;45631;51.962;5.974;2024-02-16T05:24:35;69425.28;;;9.32;100.00
59757;BME280;45631;51.962;5.974;2024-02-16T05:27:03;69423.22;;;9.27;100.00
59757;BME280;45631;51.962;5.974;2024-02-16T05:29:31;69424.94;;;9.24;100.00
59757;BME280;45631;51.962;5.974;2024-02-16T05:32:00;69414.47;;;9.20;100.00
59757;BME280;45631;51.962;5.974;2024-02-16T05:34:29;69417.38;;;9.22;100.00
59757;BME280;45631;51.962;5.974;2024-02-16T05:37:05;69413.59;;;9.21;100.00
59757;BME280;45631;51.962;5.974;2024-02-16T05:39:36;69416.22;;;9.21;100.00
59757;BME280;45631;51.962;5.974;2024-02-16T05:42:20;69414.22;;;9.22;100.00
59757;BME280;45631;51.962;5.974;2024-02-16T05:44:49;69410.97;;;9.17;100.00
59757;BME280;45631;51.962;5.974;2024-02-16T05:47:18;69409.81;;;9.16;100.00
59757;BME280;45631;51.962;5.974;2024-02-16T05:49:48;69401.38;;;9.10;100.00
59757;BME280;45631;51.962;5.974;2024-02-16T05:52:17;69400.75;;;9.05;100.00
59757;BME280;45631;51.962;5.974;2024-02-16T05:54:46;69398.16;;;9.05;100.00
59757;BME280;45631;51.962;5.974;2024-02-16T05:57:15;69396.38;;;9.04;100.00
59757;BME280;45631;51.962;5.974;2024-02-16T05:59:45;69394.06;;;9.02;100.00
59757;BME280;45631;51.962;5.974;2024-02-16T06:02:16;69394.06;;;9.02;100.00
59757;BME280;45631;51.962;5.974;2024-02-16T06:04:44;69401.97;;;9.11;100.00
59757;BME280;45631;51.962;5.974;2024-02-16T06:07:13;69406.63;;;9.15;100.00
59757;BME280;45631;51.962;5.974;2024-02-16T06:09:42;69411.56;;;9.17;100.00
59757;BME280;45631;51.962;5.974;2024-02-16T06:12:10;69415.31;;;9.18;100.00
59757;BME280;45631;51.962;5.974;2024-02-16T06:14:40;69401.69;;;9.13;100.00
59757;BME280;45631;51.962;5.974;2024-02-16T06:17:08;69399.03;;;9.08;100.00
59757;BME280;45631;51.962;5.974;2024-02-16T06:19:39;69398.72;;;9.06;100.00
59757;BME280;45631;51.962;5.974;2024-02-16T06:22:09;69402.50;;;9.07;100.00
59757;BME280;45631;51.962;5.974;2024-02-16T06:24:38;69407.75;;;9.11;100.00
59757;BME280;45631;51.962;5.974;2024-02-16T06:27:07;69413.88;;;9.19;100.00
59757;BME280;45631;51.962;5.974;2024-02-16T06:29:36;69415.94;;;9.23;100.00
59757;BME280;45631;51.962;5.974;2024-02-16T06:32:04;69427.59;;;9.34;100.00
59757;BME280;45631;51.962;5.974;2024-02-16T06:34:33;69427.88;;;9.32;100.00
59757;BME280;45631;51.962;5.974;2024-02-16T06:37:01;69433.75;;;9.41;100.00
59757;BME280;45631;51.962;5.974;2024-02-16T06:39:30;69447.72;;;9.49;100.00
59757;BME280;45631;51.962;5.974;2024-02-16T06:42:00;69458.78;;;9.59;100.00
59757;BME280;45631;51.962;5.974;2024-02-16T06:44:29;69457.91;;;9.60;100.00
59757;BME280;45631;51.962;5.974;2024-02-16T06:46:57;69456.75;;;9.59;100.00
59757;BME280;45631;51.962;5.974;2024-02-16T06:49:25;69454.69;;;9.55;100.00
59757;BME280;45631;51.962;5.974;2024-02-16T06:51:53;69463.13;;;9.60;100.00
59757;BME280;45631;51.962;5.974;2024-02-16T06:54:22;69469.28;;;9.68;100.00
59757;BME280;45631;51.962;5.974;2024-02-16T06:56:52;69471.03;;;9.70;100.00
59757;BME280;45631;51.962;5.974;2024-02-16T06:59:21;69476.59;;;9.77;100.00
59757;BME280;45631;51.962;5.974;2024-02-16T07:01:49;69483.28;;;9.80;100.00
59757;BME280;45631;51.962;5.974;2024-02-16T07:04:17;69483.84;;;9.81;100.00
59757;BME280;45631;51.962;5.974;2024-02-16T07:06:46;69497.22;;;9.88;100.00
59757;BME280;45631;51.962;5.974;2024-02-16T07:09:14;69492.59;;;9.89;100.00
59757;BME280;45631;51.962;5.974;2024-02-16T07:11:42;69498.16;;;9.96;100.00
59757;BME280;45631;51.962;5.974;2024-02-16T07:14:17;69499.03;;;9.94;100.00
59757;BME280;45631;51.962;5.974;2024-02-16T07:16:46;69501.63;;;9.94;100.00
59757;BME280;45631;51.962;5.974;2024-02-16T07:19:14;69499.59;;;9.95;100.00
59757;BME280;45631;51.962;5.974;2024-02-16T07:21:47;69506.59;;;10.01;100.00
59757;BME280;45631;51.962;5.974;2024-02-16T07:24:16;69515.34;;;10.09;100.00
59757;BME280;45631;51.962;5.974;2024-02-16T07:26:45;69513.59;;;10.07;100.00
59757;BME280;45631;51.962;5.974;2024-02-16T07:29:13;69513.91;;;10.10;100.00
59757;BME280;45631;51.962;5.974;2024-02-16T07:31:43;69523.84;;;10.19;100.00
59757;BME280;45631;51.962;5.974;2024-02-16T07:34:13;69529.34;;;10.21;100.00
59757;BME280;45631;51.962;5.974;2024-02-16T07:36:41;69532.00;;;10.26;100.00
59757;BME280;45631;51.962;5.974;2024-02-16T07:39:10;69538.41;;;10.31;100.00
59757;BME280;45631;51.962;5.974;2024-02-16T07:41:39;69543.94;;;10.34;100.00
59757;BME280;45631;51.962;5.974;2024-02-16T07:44:09;69544.59;;;10.39;100.00
59757;BME280;45631;51.962;5.974;2024-02-16T07:46:40;69559.16;;;10.52;100.00
59757;BME280;45631;51.962;5.974;2024-02-16T07:49:08;69571.38;;;10.58;100.00
59757;BME280;45631;51.962;5.974;2024-02-16T07:51:39;69573.72;;;10.60;100.00
59757;BME280;45631;51.962;5.974;2024-02-16T07:54:08;69578.38;;;10.64;100.00
59757;BME280;45631;51.962;5.974;2024-02-16T07:56:36;69578.69;;;10.67;100.00
59757;BME280;45631;51.962;5.974;2024-02-16T07:59:04;69589.75;;;10.72;100.00
59757;BME280;45631;51.962;5.974;2024-02-16T08:01:33;69589.19;;;10.76;100.00
59757;BME280;45631;51.962;5.974;2024-02-16T08:04:01;69593.88;;;10.80;100.00
59757;BME280;45631;51.962;5.974;2024-02-16T08:06:32;69596.50;;;10.85;100.00
59757;BME280;45631;51.962;5.974;2024-02-16T08:09:02;69597.69;;;10.86;100.00
59757;BME280;45631;51.962;5.974;2024-02-16T08:11:31;69611.97;;;10.96;100.00
59757;BME280;45631;51.962;5.974;2024-02-16T08:13:59;69615.72;;;10.97;100.00
59757;BME280;45631;51.962;5.974;2024-02-16T08:16:28;69611.97;;;10.96;100.00
59757;BME280;45631;51.962;5.974;2024-02-16T08:18:56;69621.63;;;11.07;100.00
59757;BME280;45631;51.962;5.974;2024-02-16T08:21:27;69624.53;;;11.10;100.00
59757;BME280;45631;51.962;5.974;2024-02-16T08:23:55;69630.66;;;11.13;100.00
59757;BME280;45631;51.962;5.974;2024-02-16T08:26:25;69632.97;;;11.15;100.00
59757;BME280;45631;51.962;5.974;2024-02-16T08:28:53;69628.91;;;11.16;100.00
59757;BME280;45631;51.962;5.974;2024-02-16T08:31:21;69636.50;;;11.18;100.00
59757;BME280;45631;51.962;5.974;2024-02-16T08:33:51;69638.25;;;11.20;100.00
59757;BME280;45631;51.962;5.974;2024-02-16T08:36:20;69646.09;;;11.24;100.00
59757;BME280;45631;51.962;5.974;2024-02-16T08:38:54;69650.50;;;11.30;100.00
59757;BME280;45631;51.962;5.974;2024-02-16T08:41:23;69652.25;;;11.32;100.00
59757;BME280;45631;51.962;5.974;2024-02-16T08:43:52;69655.16;;;11.35;100.00
59757;BME280;45631;51.962;5.974;2024-02-16T08:46:21;69657.22;;;11.39;100.00
59757;BME280;45631;51.962;5.974;2024-02-16T08:48:50;69665.69;;;11.44;100.00
59757;BME280;45631;51.962;5.974;2024-02-16T08:51:18;69661.91;;;11.43;100.00
59757;BME280;45631;51.962;5.974;2024-02-16T08:53:46;69672.38;;;11.47;100.00
59757;BME280;45631;51.962;5.974;2024-02-16T08:56:14;69670.94;;;11.48;100.00
59757;BME280;45631;51.962;5.974;2024-02-16T08:58:43;69681.41;;;11.53;100.00
59757;BME280;45631;51.962;5.974;2024-02-16T09:01:12;69674.47;;;11.56;100.00
59757;BME280;45631;51.962;5.974;2024-02-16T09:03:42;69684.38;;;11.60;100.00
59757;BME280;45631;51.962;5.974;2024-02-16T09:06:11;69690.47;;;11.63;100.00
59757;BME280;45631;51.962;5.974;2024-02-16T09:08:39;69693.41;;;11.66;100.00
59757;BME280;45631;51.962;5.974;2024-02-16T09:11:08;69688.75;;;11.66;100.00
59757;BME280;45631;51.962;5.974;2024-02-16T09:13:36;69701.88;;;11.71;100.00
59757;BME280;45631;51.962;5.974;2024-02-16T09:16:07;69698.97;;;11.73;100.00
59757;BME280;45631;51.962;5.974;2024-02-16T09:18:37;69699.84;;;11.76;100.00
59757;BME280;45631;51.962;5.974;2024-02-16T09:21:06;69704.50;;;11.80;100.00
59757;BME280;45631;51.962;5.974;2024-02-16T09:23:35;69706.25;;;11.82;100.00
59757;BME280;45631;51.962;5.974;2024-02-16T09:26:03;69710.91;;;11.81;100.00
59757;BME280;45631;51.962;5.974;2024-02-16T09:28:32;69703.97;;;11.84;100.00
59757;BME280;45631;51.962;5.974;2024-02-16T09:31:00;69717.34;;;11.87;100.00
59757;BME280;45631;51.962;5.974;2024-02-16T09:33:28;69719.09;;;11.89;100.00
59757;BME280;45631;51.962;5.974;2024-02-16T09:35:58;69717.38;;;11.92;100.00
59757;BME280;45631;51.962;5.974;2024-02-16T09:38:26;69723.53;;;11.95;100.00
59757;BME280;45631;51.962;5.974;2024-02-16T09:40:54;69729.06;;;11.97;100.00
59757;BME280;45631;51.962;5.974;2024-02-16T09:43:26;69737.22;;;12.05;100.00
59757;BME280;45631;51.962;5.974;2024-02-16T09:45:55;69734.63;;;12.05;100.00
59757;BME280;45631;51.962;5.974;2024-02-16T09:48:26;69739.56;;;12.07;100.00
59757;BME280;45631;51.962;5.974;2024-02-16T09:50:55;69745.72;;;12.14;100.00
59757;BME280;45631;51.962;5.974;2024-02-16T09:53:28;69749.50;;;12.15;100.00
59757;BME280;45631;51.962;5.974;2024-02-16T09:55:57;69752.41;;;12.18;100.00
59757;BME280;45631;51.962;5.974;2024-02-16T09:58:25;69748.38;;;12.19;100.00
59757;BME280;45631;51.962;5.974;2024-02-16T10:00:54;69756.53;;;12.26;100.00
59757;BME280;45631;51.962;5.974;2024-02-16T10:03:25;69762.66;;;12.29;100.00
59757;BME280;45631;51.962;5.974;2024-02-16T10:06:04;69762.38;;;12.31;100.00
59757;BME280;45631;51.962;5.974;2024-02-16T10:08:46;69774.03;;;12.37;100.00
59757;BME280;45631;51.962;5.974;2024-02-16T10:11:14;69772.56;;;12.33;100.00
59757;BME280;45631;51.962;5.974;2024-02-16T10:13:43;69772.00;;;12.38;100.00
59757;BME280;45631;51.962;5.974;2024-02-16T10:16:11;69778.44;;;12.43;100.00
59757;BME280;45631;51.962;5.974;2024-02-16T10:18:40;69776.41;;;12.44;100.00
59757;BME280;45631;51.962;5.974;2024-02-16T10:21:09;69784.88;;;12.49;100.00
59757;BME280;45631;51.962;5.974;2024-02-16T10:23:39;69787.50;;;12.49;100.00
59757;BME280;45631;51.962;5.974;2024-02-16T10:26:10;69785.75;;;12.52;100.00
59757;BME280;45631;51.962;5.974;2024-02-16T10:28:40;69788.94;;;12.52;100.00
59757;BME280;45631;51.962;5.974;2024-02-16T10:31:10;69793.63;;;12.57;100.00
59757;BME280;45631;51.962;5.974;2024-02-16T10:33:38;69796.84;;;12.57;100.00
59757;BME280;45631;51.962;5.974;2024-02-16T10:36:09;69793.94;;;12.59;100.00
59757;BME280;45631;51.962;5.974;2024-02-16T10:38:44;69793.06;;;12.56;100.00
59757;BME280;45631;51.962;5.974;2024-02-16T10:41:14;69796.56;;;12.59;100.00
59757;BME280;45631;51.962;5.974;2024-02-16T10:43:46;69794.22;;;12.57;100.00
59757;BME280;45631;51.962;5.974;2024-02-16T10:46:16;69792.47;;;12.56;100.00
59757;BME280;45631;51.962;5.974;2024-02-16T10:48:44;69796.84;;;12.62;100.00
59757;BME280;45631;51.962;5.974;2024-02-16T10:51:13;69795.97;;;12.59;100.00
59757;BME280;45631;51.962;5.974;2024-02-16T10:53:45;69788.09;;;12.54;100.00
59757;BME280;45631;51.962;5.974;2024-02-16T10:56:14;69789.00;;;12.57;100.00
59757;BME280;45631;51.962;5.974;2024-02-16T10:58:47;69786.06;;;12.55;100.00
59757;BME280;45631;51.962;5.974;2024-02-16T11:01:15;69800.91;;;12.56;100.00
59757;BME280;45631;51.962;5.974;2024-02-16T11:03:45;69792.16;;;12.53;100.00
59757;BME280;45631;51.962;5.974;2024-02-16T11:06:17;69775.81;;;12.43;100.00
59757;BME280;45631;51.962;5.974;2024-02-16T11:08:50;69771.72;;;12.40;100.00
59757;BME280;45631;51.962;5.974;2024-02-16T11:11:23;69771.13;;;12.39;100.00
59757;BME280;45631;51.962;5.974;2024-02-16T11:13:54;69764.13;;;12.33;100.00
59757;BME280;45631;51.962;5.974;2024-02-16T11:16:22;69757.72;;;12.27;100.00
59757;BME280;45631;51.962;5.974;2024-02-16T11:18:53;69759.16;;;12.26;100.00
59757;BME280;45631;51.962;5.974;2024-02-16T11:21:21;69758.28;;;12.23;100.00
59757;BME280;45631;51.962;5.974;2024-02-16T11:23:51;69750.13;;;12.21;100.00
59757;BME280;45631;51.962;5.974;2024-02-16T11:26:22;69752.41;;;12.18;100.00
59757;BME280;45631;51.962;5.974;2024-02-16T11:28:51;69742.53;;;12.14;100.00
59757;BME280;45631;51.962;5.974;2024-02-16T11:31:20;69740.47;;;12.10;100.00
59757;BME280;45631;51.962;5.974;2024-02-16T11:33:49;69732.00;;;12.05;100.00
59757;BME280;45631;51.962;5.974;2024-02-16T11:36:18;69730.50;;;12.01;100.00
59757;BME280;45631;51.962;5.974;2024-02-16T11:38:46;69731.38;;;11.99;100.00
59757;BME280;45631;51.962;5.974;2024-02-16T11:41:16;69731.66;;;11.97;100.00
59757;BME280;45631;51.962;5.974;2024-02-16T11:43:45;69715.91;;;11.93;100.00
59757;BME280;45631;51.962;5.974;2024-02-16T11:46:14;69715.63;;;11.90;100.00
59757;BME280;45631;51.962;5.974;2024-02-16T11:48:43;69715.59;;;11.86;100.00
59757;BME280;45631;51.962;5.974;2024-02-16T11:51:14;69712.13;;;11.87;100.00
59757;BME280;45631;51.962;5.974;2024-02-16T11:53:44;69708.88;;;11.82;100.00
59757;BME280;45631;51.962;5.974;2024-02-16T11:56:22;69711.22;;;11.84;100.00
59757;BME280;45631;51.962;5.974;2024-02-16T11:58:51;69697.22;;;11.76;100.00
59757;BME280;45631;51.962;5.974;2024-02-16T12:01:20;69702.16;;;11.74;100.00
59757;BME280;45631;51.962;5.974;2024-02-16T12:03:48;69697.53;;;11.74;100.00
59757;BME280;45631;51.962;5.974;2024-02-16T12:06:20;69696.91;;;11.74;100.00
59757;BME280;45631;51.962;5.974;2024-02-16T12:08:50;69696.03;;;11.71;100.00
59757;BME280;45631;51.962;5.974;2024-02-16T12:11:19;69698.66;;;11.71;100.00
59757;BME280;45631;51.962;5.974;2024-02-16T12:13:49;69688.75;;;11.66;100.00
59757;BME280;45631;51.962;5.974;2024-02-16T12:16:18;69689.34;;;11.67;100.00
59757;BME280;45631;51.962;5.974;2024-02-16T12:18:47;69692.25;;;11.70;100.00
59757;BME280;45631;51.962;5.974;2024-02-16T12:21:17;69690.19;;;11.65;100.00
59757;BME280;45631;51.962;5.974;2024-02-16T12:23:49;69687.56;;;11.65;100.00
59757;BME280;45631;51.962;5.974;2024-02-16T12:26:17;69680.88;;;11.62;100.00
59757;BME280;45631;51.962;5.974;2024-02-16T12:28:45;69693.97;;;11.66;100.00
59757;BME280;45631;51.962;5.974;2024-02-16T12:31:20;69691.66;;;11.64;100.00
59757;BME280;45631;51.962;5.974;2024-02-16T12:33:49;69692.81;;;11.65;100.00
59757;BME280;45631;51.962;5.974;2024-02-16T12:36:17;69690.19;;;11.65;100.00
59757;BME280;45631;51.962;5.974;2024-02-16T12:38:46;69692.81;;;11.65;100.00
59757;BME280;45631;51.962;5.974;2024-02-16T12:41:14;69687.28;;;11.63;100.00
59757;BME280;45631;51.962;5.974;2024-02-16T12:43:43;69686.69;;;11.62;100.00
59757;BME280;45631;51.962;5.974;2024-02-16T12:46:11;69685.81;;;11.59;100.00
59757;BME280;45631;51.962;5.974;2024-02-16T12:48:41;69684.38;;;11.60;100.00
59757;BME280;45631;51.962;5.974;2024-02-16T12:51:14;69679.41;;;11.58;100.00
59757;BME280;45631;51.962;5.974;2024-02-16T12:53:42;69679.69;;;11.56;100.00
59757;BME280;45631;51.962;5.974;2024-02-16T12:56:10;69682.59;;;11.59;100.00
59757;BME280;45631;51.962;5.974;2024-02-16T12:58:39;69680.28;;;11.57;100.00
59757;BME280;45631;51.962;5.974;2024-02-16T13:01:07;69674.44;;;11.52;100.00
59757;BME280;45631;51.962;5.974;2024-02-16T13:03:50;69678.53;;;11.55;100.00
59757;BME280;45631;51.962;5.974;2024-02-16T13:06:18;69673.84;;;11.51;100.00